Time;durP1;ratioP1;P1;durP2;ratioP2;P2;SDS_P1;SDS_P2;PMS_P1;PMS_P2;Temp;Humidity;BMP_temperature;BMP_pressure;BME280_temperature;BME280_humidity;BME280_pressure;Samples;Min_cycle;Max_cycle;Signal;HPM_P1;HPM_P2
2020/12/16 00:01:43;;;;;;;28.27;12.95;;;8.10;99.90;;;;;;4992437;28;20050;-70
2020/12/16 00:04:10;;;;;;;24.83;11.77;;;8.10;99.90;;;;;;4977508;28;20069;-70
2020/12/16 00:06:37;;;;;;;27.02;12.40;;;8.10;99.90;;;;;;4977499;28;20419;-70
2020/12/16 00:09:05;;;;;;;23.02;12.45;;;8.10;99.90;;;;;;4978016;28;20062;-70
2020/12/16 00:11:35;;;;;;;28.35;15.25;;;8.10;99.90;;;;;;4977743;28;20033;-70
2020/12/16 00:14:02;;;;;;;29.70;18.30;;;8.10;99.90;;;;;;4976451;28;20043;-70
2020/12/16 00:16:32;;;;;;;30.50;17.60;;;8.10;99.90;;;;;;4977389;28;20113;-70
2020/12/16 00:19:00;;;;;;;28.77;16.30;;;8.10;99.90;;;;;;4976571;28;20027;-70
2020/12/16 00:21:27;;;;;;;24.45;12.65;;;8.10;99.90;;;;;;4977390;28;20023;-70
2020/12/16 00:23:54;;;;;;;25.80;12.95;;;8.00;99.90;;;;;;4977386;28;20027;-70
2020/12/16 00:26:22;;;;;;;27.40;12.82;;;8.00;99.90;;;;;;4977842;28;20101;-70
2020/12/16 00:28:50;;;;;;;27.50;13.40;;;8.00;99.90;;;;;;4977475;28;20482;-70
2020/12/16 00:31:18;;;;;;;30.45;12.35;;;7.90;99.90;;;;;;4977295;28;20093;-70
2020/12/16 00:33:46;;;;;;;24.63;12.50;;;8.00;99.90;;;;;;4977360;28;20062;-70
2020/12/16 00:36:14;;;;;;;27.75;12.70;;;7.90;99.90;;;;;;4977192;28;20027;-70
2020/12/16 00:38:41;;;;;;;22.83;11.32;;;7.90;99.90;;;;;;4977831;28;20042;-70
2020/12/16 00:41:09;;;;;;;23.08;11.77;;;7.90;99.90;;;;;;4977201;28;20327;-70
2020/12/16 00:43:37;;;;;;;23.83;11.07;;;7.90;99.90;;;;;;4992320;28;20486;-70
2020/12/16 00:46:05;;;;;;;23.20;11.68;;;7.90;99.90;;;;;;4977110;28;20416;-70
2020/12/16 00:48:33;;;;;;;27.63;12.60;;;7.90;99.90;;;;;;4992462;28;20427;-70
2020/12/16 00:51:00;;;;;;;30.75;12.77;;;7.90;99.90;;;;;;4977093;28;20486;-70
2020/12/16 00:53:28;;;;;;;26.63;13.05;;;7.90;99.90;;;;;;4977137;28;20030;-70
2020/12/16 00:55:55;;;;;;;31.80;14.40;;;7.90;99.90;;;;;;4977067;28;20115;-70
2020/12/16 00:58:23;;;;;;;31.77;14.02;;;7.90;99.90;;;;;;4979064;28;20026;-70
2020/12/16 01:00:52;;;;;;;29.70;14.02;;;7.90;99.90;;;;;;4981079;28;20341;-70
2020/12/16 01:03:20;;;;;;;27.98;12.98;;;7.90;99.90;;;;;;4980362;28;20078;-70
2020/12/16 01:05:47;;;;;;;24.50;11.70;;;7.90;99.90;;;;;;4980500;28;20021;-70
2020/12/16 01:08:14;;;;;;;21.27;10.65;;;7.90;99.90;;;;;;4981083;28;20442;-70
2020/12/16 01:10:42;;;;;;;26.13;12.43;;;7.80;99.90;;;;;;4980352;28;20023;-70
2020/12/16 01:13:10;;;;;;;29.35;13.55;;;7.80;99.90;;;;;;4980769;28;20019;-70
2020/12/16 01:15:37;;;;;;;25.75;11.85;;;7.90;99.90;;;;;;4980239;28;20383;-70
2020/12/16 01:18:05;;;;;;;27.60;14.02;;;7.90;99.90;;;;;;4979175;28;20098;-70
2020/12/16 01:20:33;;;;;;;32.88;14.15;;;7.80;99.90;;;;;;4980366;28;20037;-70
2020/12/16 01:23:00;;;;;;;26.65;12.20;;;7.80;99.90;;;;;;4980076;28;20030;-70
2020/12/16 01:25:28;;;;;;;27.73;12.10;;;7.80;99.90;;;;;;4980051;28;20081;-70
2020/12/16 01:28:00;;;;;;;29.75;13.52;;;7.80;99.90;;;;;;4980624;28;20022;-70
2020/12/16 01:30:28;;;;;;;28.50;12.93;;;7.80;99.90;;;;;;4979913;28;20031;-70
2020/12/16 01:32:57;;;;;;;28.55;13.82;;;7.80;99.90;;;;;;4980147;28;20057;-70
2020/12/16 01:35:25;;;;;;;30.25;13.30;;;7.70;99.90;;;;;;4995049;28;20038;-70
2020/12/16 01:37:54;;;;;;;30.20;13.27;;;7.70;99.90;;;;;;4980392;28;20434;-70
2020/12/16 01:40:22;;;;;;;27.92;13.25;;;7.70;99.90;;;;;;4979763;28;20031;-70
2020/12/16 01:42:49;;;;;;;32.00;12.70;;;7.70;99.90;;;;;;4980443;28;20019;-70
2020/12/16 01:45:21;;;;;;;32.08;13.60;;;7.70;99.90;;;;;;4978740;28;20023;-70
2020/12/16 01:47:49;;;;;;;34.95;14.73;;;7.70;99.90;;;;;;4980283;28;20030;-70
2020/12/16 01:50:17;;;;;;;34.45;14.95;;;7.70;99.90;;;;;;4994792;28;20082;-70
2020/12/16 01:52:46;;;;;;;35.65;15.23;;;7.70;99.90;;;;;;4994961;28;20027;-70
2020/12/16 01:55:14;;;;;;;27.80;13.52;;;7.70;99.90;;;;;;4979525;28;20027;-70
2020/12/16 01:57:47;;;;;;;29.65;13.18;;;7.70;99.90;;;;;;4980064;28;20027;-70
2020/12/16 02:00:15;;;;;;;31.20;13.55;;;7.70;99.90;;;;;;4979302;28;20483;-70
2020/12/16 02:02:51;;;;;;;26.85;13.18;;;7.80;99.90;;;;;;4979301;28;20435;-70
2020/12/16 02:05:23;;;;;;;31.38;12.65;;;7.80;99.90;;;;;;4979306;28;20031;-70
2020/12/16 02:07:56;;;;;;;33.65;15.05;;;7.70;99.90;;;;;;4979262;28;20023;-70
2020/12/16 02:10:24;;;;;;;31.73;13.60;;;7.70;99.90;;;;;;4978325;28;20050;-70
2020/12/16 02:12:52;;;;;;;28.73;13.80;;;7.70;99.90;;;;;;4979624;28;20073;-70
2020/12/16 02:15:20;;;;;;;30.85;13.13;;;7.70;99.90;;;;;;4979057;28;20034;-70
2020/12/16 02:17:49;;;;;;;32.72;13.63;;;7.60;99.90;;;;;;4979132;28;20033;-70
2020/12/16 02:20:16;;;;;;;27.92;13.70;;;7.70;99.90;;;;;;4978991;28;20057;-70
2020/12/16 02:22:50;;;;;;;31.65;14.25;;;7.60;99.90;;;;;;4994419;28;20074;-70
2020/12/16 02:25:18;;;;;;;28.80;13.13;;;7.60;99.90;;;;;;4978939;28;20019;-70
2020/12/16 02:27:45;;;;;;;29.00;14.27;;;7.60;99.90;;;;;;4979202;28;20056;-70
2020/12/16 02:30:14;;;;;;;28.92;13.80;;;7.60;99.90;;;;;;4978770;28;20027;-70
2020/12/16 02:32:42;;;;;;;30.27;13.85;;;7.60;99.90;;;;;;4978551;28;20398;-70
2020/12/16 02:35:10;;;;;;;32.13;15.10;;;7.60;99.90;;;;;;4978295;28;20038;-70
2020/12/16 02:37:39;;;;;;;31.83;13.95;;;7.60;99.90;;;;;;4978914;28;20057;-70
2020/12/16 02:40:07;;;;;;;27.65;13.77;;;7.60;99.90;;;;;;4978562;28;20027;-70
2020/12/16 02:42:35;;;;;;;28.00;13.80;;;7.60;99.90;;;;;;4978955;28;20027;-70
2020/12/16 02:45:03;;;;;;;35.10;14.60;;;7.60;99.90;;;;;;4978520;28;20022;-70
2020/12/16 02:47:31;;;;;;;28.17;13.98;;;7.60;99.90;;;;;;4979271;28;20067;-70
2020/12/16 02:49:59;;;;;;;31.75;14.13;;;7.50;99.90;;;;;;4978477;28;20031;-70
2020/12/16 02:52:26;;;;;;;33.80;14.25;;;7.50;99.90;;;;;;4978572;28;20033;-70
2020/12/16 02:54:54;;;;;;;29.80;13.15;;;7.50;99.90;;;;;;4978436;28;20026;-70
2020/12/16 02:57:22;;;;;;;25.58;12.48;;;7.40;99.90;;;;;;4977602;28;20330;-70
2020/12/16 02:59:58;;;;;;;31.88;13.27;;;7.40;99.90;;;;;;4978202;28;20485;-70
2020/12/16 03:02:25;;;;;;;30.95;12.77;;;7.30;99.90;;;;;;4978062;28;20178;-70
2020/12/16 03:04:52;;;;;;;29.35;12.70;;;7.20;99.90;;;;;;4978516;28;20025;-70
2020/12/16 03:07:20;;;;;;;30.45;13.07;;;7.10;99.90;;;;;;4978937;28;20060;-70
2020/12/16 03:09:47;;;;;;;31.10;12.55;;;7.00;99.90;;;;;;4978184;28;20419;-70
2020/12/16 03:12:15;;;;;;;32.40;13.15;;;6.90;99.90;;;;;;4978116;28;20039;-70
2020/12/16 03:14:43;;;;;;;29.33;12.68;;;6.80;99.90;;;;;;4978291;28;20027;-70
2020/12/16 03:17:10;;;;;;;33.20;12.77;;;6.70;99.90;;;;;;4978755;28;20058;-69
2020/12/16 03:19:38;;;;;;;31.10;11.95;;;6.60;99.90;;;;;;4978240;28;20019;-70
2020/12/16 03:22:06;;;;;;;39.08;14.13;;;6.50;99.90;;;;;;4978092;28;20019;-70
2020/12/16 03:24:34;;;;;;;28.67;11.73;;;6.40;99.90;;;;;;4977970;28;20023;-70
2020/12/16 03:27:01;;;;;;;30.45;12.32;;;6.30;99.90;;;;;;4978093;28;20026;-70
2020/12/16 03:29:29;;;;;;;33.22;13.15;;;6.20;99.90;;;;;;4978125;28;20049;-70
2020/12/16 03:31:57;;;;;;;28.38;12.25;;;6.10;99.90;;;;;;4977907;28;20427;-70
2020/12/16 03:34:24;;;;;;;49.97;13.88;;;5.90;99.90;;;;;;4992974;28;20033;-69
2020/12/16 03:36:51;;;;;;;96.47;14.88;;;5.80;99.90;;;;;;4992935;28;20078;-70
2020/12/16 03:39:18;;;;;;;36.80;13.02;;;5.70;99.90;;;;;;4978230;28;20046;-70
2020/12/16 03:41:46;;;;;;;201.35;18.15;;;5.70;99.90;;;;;;4977731;28;20343;-70
2020/12/16 03:44:13;;;;;;;131.00;15.00;;;5.60;99.90;;;;;;4977957;28;20105;-70
2020/12/16 03:46:41;;;;;;;170.48;21.83;;;5.40;99.90;;;;;;4977664;28;20038;-70
2020/12/16 03:49:09;;;;;;;168.68;16.05;;;5.30;99.90;;;;;;4977672;28;20031;-70
2020/12/16 03:51:37;;;;;;;252.95;22.70;;;5.20;99.90;;;;;;4978128;28;20031;-70
2020/12/16 03:54:04;;;;;;;227.57;16.83;;;5.10;99.90;;;;;;4977621;28;20031;-70
2020/12/16 03:56:32;;;;;;;150.18;17.13;;;5.00;99.90;;;;;;4978174;28;20019;-70
2020/12/16 03:59:00;;;;;;;84.43;13.48;;;4.90;99.90;;;;;;4977952;28;20311;-70
2020/12/16 04:01:28;;;;;;;58.30;13.25;;;4.90;99.90;;;;;;4977985;28;20082;-70
2020/12/16 04:03:56;;;;;;;124.72;14.88;;;4.80;99.90;;;;;;4977135;28;20030;-69
2020/12/16 04:06:24;;;;;;;70.97;11.55;;;4.80;99.90;;;;;;4977431;28;20027;-70
2020/12/16 04:08:52;;;;;;;24.45;9.82;;;4.70;99.90;;;;;;4977444;28;20331;-70
2020/12/16 04:11:19;;;;;;;26.55;9.95;;;4.60;99.90;;;;;;4977997;28;20372;-70
2020/12/16 04:13:47;;;;;;;29.35;11.05;;;4.50;99.90;;;;;;4992694;28;20038;-70
2020/12/16 04:16:20;;;;;;;66.20;12.60;;;4.40;99.90;;;;;;4977427;28;20037;-70
2020/12/16 04:18:49;;;;;;;24.10;10.40;;;4.30;99.90;;;;;;4977702;28;20031;-70
2020/12/16 04:21:18;;;;;;;47.45;13.20;;;4.30;99.90;;;;;;4977904;28;20019;-70
2020/12/16 04:23:46;;;;;;;62.03;11.20;;;4.30;99.90;;;;;;4977558;28;20027;-70
2020/12/16 04:26:14;;;;;;;130.75;16.10;;;4.20;99.90;;;;;;4977312;28;20030;-70
2020/12/16 04:28:42;;;;;;;106.00;17.15;;;4.20;99.90;;;;;;4977876;28;20027;-70
2020/12/16 04:31:12;;;;;;;88.80;14.27;;;4.20;99.90;;;;;;4977282;28;20331;-70
2020/12/16 04:33:40;;;;;;;59.95;12.55;;;4.10;99.90;;;;;;4980034;28;20066;-70
2020/12/16 04:36:10;;;;;;;48.40;10.27;;;4.10;99.90;;;;;;4980886;28;20305;-70
2020/12/16 04:38:38;;;;;;;53.55;9.90;;;4.10;99.90;;;;;;4980896;28;20045;-70
2020/12/16 04:41:09;;;;;;;56.38;9.00;;;4.00;99.90;;;;;;4963967;28;20069;-70
2020/12/16 04:43:45;;;;;;;66.15;9.20;;;3.90;99.90;;;;;;4981698;28;20303;-70
2020/12/16 04:46:17;;;;;;;;;;;3.80;99.90;;;;;;4981521;28;20019;-70
2020/12/16 04:48:47;;;;;;;53.75;10.13;;;3.70;99.90;;;;;;4995969;28;19913;-70
2020/12/16 04:51:17;;;;;;;41.13;9.65;;;3.60;99.90;;;;;;4981212;28;20023;-70
2020/12/16 04:53:45;;;;;;;44.60;9.50;;;3.60;99.90;;;;;;4979667;28;20126;-70
2020/12/16 04:56:14;;;;;;;57.60;11.75;;;3.50;99.90;;;;;;4981173;28;20031;-70
2020/12/16 04:58:41;;;;;;;40.95;10.32;;;3.50;99.90;;;;;;4980726;28;20087;-70
2020/12/16 05:01:10;;;;;;;139.25;13.18;;;3.50;99.90;;;;;;4995548;28;20315;-70
2020/12/16 05:03:41;;;;;;;78.90;15.15;;;3.50;99.90;;;;;;4980368;28;20428;-69
2020/12/16 05:06:09;;;;;;;105.90;15.13;;;3.50;99.90;;;;;;4980329;28;20034;-70
2020/12/16 05:08:36;;;;;;;159.82;16.70;;;3.50;99.90;;;;;;4995699;28;20110;-70
2020/12/16 05:11:04;;;;;;;183.32;19.25;;;3.40;99.90;;;;;;4980588;28;20022;-70
2020/12/16 05:13:32;;;;;;;235.57;21.52;;;3.40;99.90;;;;;;4980299;28;20342;-70
2020/12/16 05:16:03;;;;;;;192.40;13.82;;;3.40;99.90;;;;;;4980848;28;20386;-70
2020/12/16 05:18:30;;;;;;;182.20;11.85;;;3.40;99.90;;;;;;4980314;28;20106;-70
2020/12/16 05:21:01;;;;;;;129.38;15.25;;;3.40;99.90;;;;;;4980705;28;20404;-70
2020/12/16 05:23:31;;;;;;;151.30;14.23;;;3.40;99.90;;;;;;4980145;28;20382;-70
2020/12/16 05:26:07;;;;;;;94.18;10.98;;;3.30;99.90;;;;;;4980649;28;20078;-70
2020/12/16 05:28:35;;;;;;;51.88;8.05;;;3.20;99.90;;;;;;4995325;28;20427;-70
2020/12/16 05:31:08;;;;;;;140.95;11.50;;;3.20;99.90;;;;;;4980507;28;20034;-70
2020/12/16 05:33:43;;;;;;;107.75;13.48;;;3.10;99.90;;;;;;4979975;28;20033;-70
2020/12/16 05:36:12;;;;;;;61.80;9.35;;;3.00;99.90;;;;;;4979844;28;20019;-70
2020/12/16 05:38:56;;;;;;;101.38;11.23;;;2.90;99.90;;;;;;4979893;28;20046;-69
2020/12/16 05:41:34;;;;;;;91.80;9.93;;;2.90;99.90;;;;;;4994938;28;20029;-69
2020/12/16 05:44:18;;;;;;;47.45;8.40;;;2.90;99.90;;;;;;4979568;28;20019;-70
2020/12/16 05:46:48;;;;;;;46.42;10.52;;;2.90;99.90;;;;;;4980407;28;20082;-70
2020/12/16 05:49:25;;;;;;;26.33;7.93;;;2.90;99.90;;;;;;4979512;28;20038;-70
2020/12/16 05:52:11;;;;;;;42.58;7.78;;;2.90;99.90;;;;;;4979869;28;20023;-70
2020/12/16 05:54:39;;;;;;;39.55;8.73;;;2.90;99.90;;;;;;4980000;28;20027;-69
2020/12/16 05:57:20;;;;;;;43.00;8.52;;;2.90;99.90;;;;;;4994852;28;20118;-70
2020/12/16 06:00:06;;;;;;;70.07;11.20;;;2.90;99.90;;;;;;4979899;28;20057;-69
2020/12/16 06:02:38;;;;;;;35.65;8.07;;;2.90;99.90;;;;;;4979214;28;20403;-70
2020/12/16 06:05:12;;;;;;;88.43;12.02;;;2.90;99.90;;;;;;4994471;28;20045;-70
2020/12/16 06:07:47;;;;;;;51.05;9.60;;;2.90;99.90;;;;;;4979544;28;20022;-70
2020/12/16 06:10:15;;;;;;;53.47;9.77;;;2.80;99.90;;;;;;4979288;28;20026;-70
2020/12/16 06:12:45;;;;;;;83.95;12.43;;;2.80;99.90;;;;;;4979430;28;20479;-70
2020/12/16 06:15:14;;;;;;;109.32;13.15;;;2.70;99.90;;;;;;4979035;28;20026;-69
2020/12/16 06:17:44;;;;;;;46.28;9.73;;;2.70;99.90;;;;;;4994550;28;20066;-69
2020/12/16 06:20:17;;;;;;;66.85;11.18;;;2.70;99.90;;;;;;4978922;28;20041;-69
2020/12/16 06:22:47;;;;;;;60.95;8.35;;;2.70;99.90;;;;;;4979256;28;20019;-69
2020/12/16 06:25:18;;;;;;;102.65;12.10;;;2.80;99.90;;;;;;4978988;28;20019;-68
2020/12/16 06:27:47;;;;;;;97.53;9.23;;;2.90;99.90;;;;;;4979527;28;20023;-69
2020/12/16 06:30:30;;;;;;;71.13;14.35;;;2.90;99.90;;;;;;4979043;28;20031;-74
2020/12/16 06:33:21;;;;;;;82.45;14.38;;;3.00;99.90;;;;;;4979534;28;20027;-71
2020/12/16 06:35:49;;;;;;;92.45;14.52;;;3.10;99.90;;;;;;4978846;28;20069;-70
2020/12/16 06:38:24;;;;;;;55.58;12.82;;;3.10;99.90;;;;;;4977758;28;20027;-71
2020/12/16 06:40:53;;;;;;;55.30;11.82;;;3.20;99.90;;;;;;4979261;28;20031;-71
2020/12/16 06:43:34;;;;;;;60.30;13.32;;;3.20;99.90;;;;;;4978722;28;20037;-71
2020/12/16 06:46:06;;;;;;;78.20;13.27;;;3.20;99.90;;;;;;4979107;28;20034;-70
2020/12/16 06:48:38;;;;;;;92.55;12.48;;;3.20;99.90;;;;;;4978612;28;20027;-72
2020/12/16 06:51:17;;;;;;;64.45;9.73;;;3.20;99.90;;;;;;4978431;28;20042;-70
2020/12/16 06:53:45;;;;;;;80.60;10.48;;;3.20;99.90;;;;;;4978510;28;20031;-71
2020/12/16 06:56:21;;;;;;;106.30;12.32;;;3.20;99.90;;;;;;4977841;28;20026;-70
2020/12/16 06:58:48;;;;;;;111.95;12.45;;;3.10;99.90;;;;;;4978112;28;20034;-71
2020/12/16 07:01:17;;;;;;;76.95;12.00;;;3.20;99.90;;;;;;4978319;28;20454;-71
2020/12/16 07:03:44;;;;;;;47.20;12.38;;;3.20;99.90;;;;;;4993285;28;20042;-71
2020/12/16 07:06:33;;;;;;;65.20;13.70;;;3.20;99.90;;;;;;4993357;28;20027;-71
2020/12/16 07:09:23;;;;;;;92.80;14.98;;;3.30;99.90;;;;;;4968528;28;20085;-71
2020/12/16 07:11:53;;;;;;;67.97;12.60;;;3.30;99.90;;;;;;4978359;28;20018;-71
2020/12/16 07:14:34;;;;;;;114.03;16.17;;;3.30;99.90;;;;;;4993224;28;20030;-71
2020/12/16 07:17:10;;;;;;;85.78;17.45;;;3.40;99.90;;;;;;4978114;28;20031;-71
2020/12/16 07:19:38;;;;;;;77.22;16.15;;;3.40;99.90;;;;;;4977978;28;20026;-71
2020/12/16 07:22:32;;;;;;;49.85;11.18;;;3.40;99.90;;;;;;4977566;28;20050;-71
2020/12/16 07:25:01;;;;;;;34.05;11.90;;;3.40;99.90;;;;;;4975431;28;20419;-71
2020/12/16 07:27:28;;;;;;;57.40;12.48;;;3.50;99.90;;;;;;4978441;28;20292;-71
2020/12/16 07:29:57;;;;;;;37.58;10.38;;;3.50;99.90;;;;;;4977857;28;20026;-71
2020/12/16 07:32:25;;;;;;;93.35;13.35;;;3.50;99.90;;;;;;4993055;28;20081;-71
2020/12/16 07:35:02;;;;;;;43.65;11.57;;;3.50;99.90;;;;;;4978047;28;20130;-71
2020/12/16 07:37:30;;;;;;;;;;;3.60;99.90;;;;;;4978325;28;20431;-71
2020/12/16 07:40:14;;;;;;;29.60;10.82;;;3.60;99.90;;;;;;4977966;28;19910;-71
2020/12/16 07:42:42;;;;;;;20.67;9.80;;;3.60;99.90;;;;;;4977789;28;20030;-71
2020/12/16 07:45:11;;;;;;;20.05;9.02;;;3.60;99.90;;;;;;4977650;28;20031;-72
2020/12/16 07:47:44;;;;;;;22.67;10.13;;;3.70;99.90;;;;;;4978426;28;20015;-72
2020/12/16 07:50:13;;;;;;;20.75;10.23;;;3.70;99.90;;;;;;4977628;28;20038;-70
2020/12/16 07:52:40;;;;;;;24.50;10.90;;;3.80;99.90;;;;;;4977668;28;20331;-72
2020/12/16 07:55:08;;;;;;;25.23;10.70;;;3.80;99.90;;;;;;4992718;28;20034;-70
2020/12/16 07:57:37;;;;;;;21.52;10.40;;;3.80;99.90;;;;;;4992796;28;20372;-68
2020/12/16 08:00:05;;;;;;;26.52;11.27;;;3.90;99.90;;;;;;4977373;28;20027;-70
2020/12/16 08:02:33;;;;;;;23.42;10.30;;;4.00;99.90;;;;;;4977361;28;20050;-68
2020/12/16 08:05:03;;;;;;;26.73;10.52;;;4.00;99.90;;;;;;4977572;28;20423;-68
2020/12/16 08:07:31;;;;;;;21.52;10.50;;;4.00;99.90;;;;;;4978554;28;20023;-68
2020/12/16 08:09:59;;;;;;;23.50;10.63;;;4.10;99.90;;;;;;4996711;28;20054;-68
2020/12/16 08:12:29;;;;;;;28.80;10.77;;;4.10;99.90;;;;;;4981535;28;20019;-68
2020/12/16 08:15:17;;;;;;;28.42;11.05;;;4.20;99.90;;;;;;4981904;28;20054;-68
2020/12/16 08:17:47;;;;;;;24.48;11.07;;;4.20;99.90;;;;;;4981855;28;20037;-70
2020/12/16 08:20:19;;;;;;;57.85;24.02;;;4.30;99.90;;;;;;4981811;28;20026;-70
2020/12/16 08:22:49;;;;;;;42.50;17.48;;;4.30;99.90;;;;;;4981383;28;20027;-68
2020/12/16 08:25:18;;;;;;;46.85;18.50;;;4.40;99.90;;;;;;4981817;28;20058;-69
2020/12/16 08:27:47;;;;;;;44.03;19.38;;;4.50;99.90;;;;;;4981456;28;20057;-69
2020/12/16 08:30:19;;;;;;;34.13;16.42;;;4.60;99.90;;;;;;4981048;28;20113;-68
2020/12/16 08:32:58;;;;;;;42.78;16.73;;;4.60;99.90;;;;;;4981181;28;20038;-69
2020/12/16 08:35:31;;;;;;;55.45;21.02;;;4.70;99.90;;;;;;4981120;28;20023;-71
2020/12/16 08:38:06;;;;;;;49.88;18.90;;;4.90;99.90;;;;;;4981043;28;20030;-69
2020/12/16 08:40:46;;;;;;;40.78;15.25;;;5.00;99.90;;;;;;4981179;28;20030;-68
2020/12/16 08:43:24;;;;;;;35.95;13.82;;;5.10;99.90;;;;;;4980871;28;20423;-70
2020/12/16 08:46:09;;;;;;;34.88;12.88;;;5.20;99.90;;;;;;4980811;28;20030;-69
2020/12/16 08:48:54;;;;;;;40.85;14.95;;;5.30;99.90;;;;;;4981064;28;20491;-69
2020/12/16 08:51:34;;;;;;;51.50;15.35;;;5.40;99.90;;;;;;4981317;28;20023;-69
2020/12/16 08:54:08;;;;;;;39.35;14.43;;;5.50;99.90;;;;;;4980765;28;20073;-69
2020/12/16 08:56:39;;;;;;;43.88;16.63;;;5.60;99.90;;;;;;4980696;28;20022;-69
2020/12/16 08:59:17;;;;;;;38.67;15.32;;;5.70;99.90;;;;;;4980974;28;20030;-68
2020/12/16 09:01:51;;;;;;;42.20;16.48;;;5.80;99.90;;;;;;4980852;28;20442;-68
2020/12/16 09:04:28;;;;;;;38.53;14.98;;;5.90;99.90;;;;;;4980592;28;20143;-68
2020/12/16 09:07:08;;;;;;;50.95;15.73;;;6.00;99.90;;;;;;4980537;28;20105;-68
2020/12/16 09:09:40;;;;;;;40.97;14.88;;;6.10;99.90;;;;;;4980026;28;20022;-68
2020/12/16 09:12:16;;;;;;;39.70;14.52;;;6.20;99.90;;;;;;4980502;28;20158;-69
2020/12/16 09:15:06;;;;;;;40.88;14.90;;;6.30;99.90;;;;;;4980319;28;20077;-68
2020/12/16 09:17:36;;;;;;;32.17;14.27;;;6.40;99.90;;;;;;4995676;28;20023;-68
2020/12/16 09:20:13;;;;;;;32.65;13.57;;;6.50;99.90;;;;;;4979750;28;20042;-69
2020/12/16 09:22:40;;;;;;;34.58;14.65;;;6.60;99.90;;;;;;4980216;28;20105;-68
2020/12/16 09:25:16;;;;;;;31.80;13.35;;;6.70;99.90;;;;;;4980123;28;20355;-68
2020/12/16 09:28:01;;;;;;;33.77;14.93;;;6.80;99.90;;;;;;4980150;28;20027;-68
2020/12/16 09:30:33;;;;;;;34.08;14.20;;;6.80;99.90;;;;;;4980227;28;20031;-68
2020/12/16 09:33:15;;;;;;;28.85;13.85;;;6.90;99.90;;;;;;4979979;28;20105;-68
2020/12/16 09:35:44;;;;;;;31.25;14.00;;;6.90;99.90;;;;;;4979859;28;20431;-68
2020/12/16 09:38:18;;;;;;;30.05;14.57;;;7.00;99.90;;;;;;4980614;28;20031;-68
2020/12/16 09:40:47;;;;;;;27.00;12.93;;;7.00;99.90;;;;;;4979925;28;20034;-69
2020/12/16 09:43:15;;;;;;;28.30;12.60;;;7.00;99.90;;;;;;4979759;28;20030;-69
2020/12/16 09:45:43;;;;;;;28.83;14.18;;;7.10;99.90;;;;;;4979467;28;20078;-69
2020/12/16 09:48:10;;;;;;;26.48;11.90;;;7.10;99.90;;;;;;4979794;28;20081;-69
2020/12/16 09:50:38;;;;;;;26.23;12.38;;;7.20;99.90;;;;;;4979513;28;20034;-69
2020/12/16 09:53:10;;;;;;;28.15;13.98;;;7.20;99.90;;;;;;4979898;28;20105;-69
2020/12/16 09:55:43;;;;;;;24.75;11.95;;;7.20;99.90;;;;;;4979594;28;20034;-70
2020/12/16 09:58:15;;;;;;;23.83;12.23;;;7.20;99.90;;;;;;4980382;28;20110;-69
2020/12/16 10:00:43;;;;;;;23.38;11.48;;;7.20;99.90;;;;;;4979359;28;20082;-69
2020/12/16 10:03:13;;;;;;;25.85;12.43;;;7.10;99.90;;;;;;4979241;28;20067;-69
2020/12/16 10:05:42;;;;;;;26.60;11.40;;;7.10;99.90;;;;;;4979348;28;20034;-69
2020/12/16 10:08:17;;;;;;;24.95;12.40;;;7.10;99.90;;;;;;4980054;28;20022;-69
2020/12/16 10:10:45;;;;;;;23.20;11.73;;;7.10;99.90;;;;;;4979289;28;20031;-69
2020/12/16 10:13:13;;;;;;;26.75;12.45;;;7.10;99.90;;;;;;4979725;28;20023;-69
2020/12/16 10:15:41;;;;;;;23.83;11.65;;;7.20;99.90;;;;;;4979195;28;20058;-69
2020/12/16 10:18:08;;;;;;;24.40;12.40;;;7.30;99.90;;;;;;4962257;28;20034;-69
2020/12/16 10:20:36;;;;;;;22.02;10.98;;;7.30;99.90;;;;;;4978158;28;20085;-69
2020/12/16 10:23:04;;;;;;;22.27;12.05;;;7.30;99.90;;;;;;4979093;28;20419;-69
2020/12/16 10:25:32;;;;;;;22.48;11.68;;;7.30;99.90;;;;;;4978955;28;20027;-69
2020/12/16 10:28:00;;;;;;;21.52;11.30;;;7.30;99.90;;;;;;4979347;28;20023;-68
2020/12/16 10:30:29;;;;;;;20.75;11.50;;;7.30;99.90;;;;;;4993169;28;20367;-69
2020/12/16 10:32:57;;;;;;;23.63;11.90;;;7.30;99.90;;;;;;4978853;28;20042;-69
2020/12/16 10:35:24;;;;;;;24.10;11.90;;;7.30;99.90;;;;;;4978887;28;20027;-69
2020/12/16 10:37:52;;;;;;;21.35;10.77;;;7.20;99.90;;;;;;4978015;28;20439;-69
2020/12/16 10:40:21;;;;;;;21.77;11.60;;;7.20;99.90;;;;;;4993797;28;20026;-69
2020/12/16 10:42:49;;;;;;;21.67;11.45;;;7.20;99.90;;;;;;4978785;28;20289;-69
2020/12/16 10:45:17;;;;;;;24.27;11.98;;;7.10;99.90;;;;;;4978614;28;20110;-69
2020/12/16 10:47:45;;;;;;;22.40;11.20;;;7.10;99.90;;;;;;4979341;28;20077;-69
2020/12/16 10:50:12;;;;;;;25.02;13.00;;;7.10;99.90;;;;;;4978559;28;20047;-69
2020/12/16 10:52:40;;;;;;;24.27;12.02;;;7.10;99.90;;;;;;4979497;28;20110;-69
2020/12/16 10:55:07;;;;;;;24.42;13.10;;;7.10;99.90;;;;;;4979024;28;20023;-69
2020/12/16 10:57:38;;;;;;;23.50;10.77;;;7.10;99.90;;;;;;4978606;28;20027;-69
2020/12/16 11:00:06;;;;;;;28.73;12.95;;;7.10;99.90;;;;;;4978315;28;20056;-69
2020/12/16 11:02:33;;;;;;;28.73;12.10;;;7.10;99.90;;;;;;4978163;28;20470;-68
2020/12/16 11:05:01;;;;;;;25.60;12.35;;;7.10;99.90;;;;;;4978203;28;20031;-69
2020/12/16 11:07:28;;;;;;;25.75;11.82;;;7.20;99.90;;;;;;4978345;28;20066;-69
2020/12/16 11:09:56;;;;;;;25.30;12.15;;;7.20;99.90;;;;;;4993412;28;20027;-70
2020/12/16 11:12:24;;;;;;;23.83;11.77;;;7.20;99.90;;;;;;4978502;28;20323;-70
2020/12/16 11:14:51;;;;;;;26.77;12.90;;;7.20;99.90;;;;;;4978099;28;20027;-70
2020/12/16 11:17:19;;;;;;;24.17;11.93;;;7.20;99.90;;;;;;4978914;28;20030;-70
2020/12/16 11:19:48;;;;;;;22.58;11.95;;;7.30;99.90;;;;;;4978514;28;20113;-70
2020/12/16 11:22:16;;;;;;;22.63;11.27;;;7.30;99.90;;;;;;4978111;28;20085;-69
2020/12/16 11:24:44;;;;;;;23.75;12.13;;;7.30;99.90;;;;;;4993146;28;20023;-70
2020/12/16 11:27:11;;;;;;;23.02;12.25;;;7.40;99.90;;;;;;4978179;28;20146;-69
2020/12/16 11:29:38;;;;;;;24.55;11.35;;;7.40;99.90;;;;;;4976960;28;20030;-69
2020/12/16 11:32:06;;;;;;;24.15;12.52;;;7.40;99.90;;;;;;4977880;28;20058;-69
2020/12/16 11:34:34;;;;;;;25.40;12.55;;;7.50;99.90;;;;;;4977963;28;20027;-69
2020/12/16 11:37:02;;;;;;;27.77;13.95;;;7.50;99.90;;;;;;4978135;28;20030;-69
2020/12/16 11:39:30;;;;;;;25.30;12.88;;;7.60;99.90;;;;;;4977343;28;20435;-69
2020/12/16 11:41:58;;;;;;;25.65;11.82;;;7.60;99.90;;;;;;4978119;28;20027;-69
2020/12/16 11:44:26;;;;;;;23.75;11.60;;;7.70;99.90;;;;;;4976671;28;20027;-69
2020/12/16 11:46:58;;;;;;;23.60;12.40;;;7.80;99.90;;;;;;4993002;28;20122;-69
2020/12/16 11:49:27;;;;;;;23.92;13.20;;;7.90;99.90;;;;;;4977866;28;20065;-69
2020/12/16 11:51:55;;;;;;;28.42;13.32;;;7.90;99.90;;;;;;4992807;28;20027;-69
2020/12/16 11:54:23;;;;;;;23.83;12.48;;;8.00;99.90;;;;;;4978073;28;20419;-69
2020/12/16 11:56:51;;;;;;;23.13;11.10;;;8.10;99.90;;;;;;4978337;28;20027;-69
2020/12/16 11:59:18;;;;;;;21.10;11.88;;;8.20;99.90;;;;;;4977609;28;20041;-69
2020/12/16 12:01:47;;;;;;;20.05;10.80;;;8.30;99.90;;;;;;4992562;28;20387;-69
2020/12/16 12:04:15;;;;;;;17.88;10.68;;;8.40;99.90;;;;;;4978657;28;20095;-69
2020/12/16 12:06:43;;;;;;;19.75;11.40;;;8.50;99.90;;;;;;4977385;28;20062;-69
2020/12/16 12:09:12;;;;;;;18.38;9.63;;;8.60;99.90;;;;;;4977970;28;20038;-69
2020/12/16 12:11:39;;;;;;;16.88;8.80;;;8.70;99.90;;;;;;4992663;28;20038;-69
2020/12/16 12:14:07;;;;;;;17.63;10.45;;;8.70;99.90;;;;;;4977172;28;20019;-69
2020/12/16 12:16:34;;;;;;;19.67;10.55;;;8.80;99.90;;;;;;4978065;28;20102;-69
2020/12/16 12:19:02;;;;;;;18.92;11.13;;;8.90;99.90;;;;;;4977971;28;20042;-69
2020/12/16 12:21:31;;;;;;;21.23;10.35;;;8.90;99.90;;;;;;4977476;28;20018;-69
2020/12/16 12:23:59;;;;;;;15.55;8.38;;;9.00;99.90;;;;;;4977661;28;20018;-69
2020/12/16 12:26:27;;;;;;;15.40;9.15;;;9.00;99.90;;;;;;4977441;28;20030;-69
2020/12/16 12:28:55;;;;;;;17.48;9.38;;;9.00;99.90;;;;;;4977311;28;20042;-69
2020/12/16 12:31:23;;;;;;;18.73;9.98;;;9.00;99.90;;;;;;4977948;28;20054;-69
2020/12/16 12:33:50;;;;;;;17.33;10.40;;;9.00;99.90;;;;;;4977537;28;20023;-69
2020/12/16 12:36:18;;;;;;;15.80;8.60;;;9.00;99.90;;;;;;4977881;28;20039;-69
2020/12/16 12:38:46;;;;;;;15.60;8.63;;;9.00;99.90;;;;;;4977832;28;20058;-69
2020/12/16 12:41:15;;;;;;;16.20;8.98;;;8.90;99.90;;;;;;4992453;28;20450;-69
2020/12/16 12:43:43;;;;;;;19.35;10.75;;;8.80;99.90;;;;;;4977420;28;20030;-69
2020/12/16 12:46:11;;;;;;;18.83;10.43;;;8.80;99.90;;;;;;4977229;28;20037;-69
2020/12/16 12:48:39;;;;;;;18.42;10.77;;;8.70;99.90;;;;;;4977195;28;20423;-67
2020/12/16 12:51:06;;;;;;;17.98;10.70;;;8.60;99.90;;;;;;4977106;28;20026;-69
2020/12/16 12:53:34;;;;;;;17.75;10.20;;;8.60;99.90;;;;;;4977901;28;20323;-69